x

South Hecate Strait (46185) Wave Buoy

6:00pm - Mon 29th Aug 2016 All times are PDT. -7 hours from GMT.

  • Sig Wave height 5.2ft
  • Peak Period 6s
  • Wind
    18mph, 22mph gusts
  • Sea Temp 61°f
  • Air Temp 57°f
  • Sea Pressure 1010.6mb
  • South Hecate Strait
  • South Hecate Strait

More Historic Weather Station data

Upgrade to MSW Pro to gain access to the past 30 days of data for over 8000 Wavebouys and Weather Stations around the globe.

Join Pro

Comparision Forecast

View Surf forecast
   
Mon 08/29 6:00pm 5ft 6s 18 22 mph 1010.6mb 61f 57f
5:00pm 5.5ft 7s 18 22 mph 1010.6mb 60f 57f
4:00pm 6ft 7s 20 22 mph 1010.6mb 60f 56f
3:00pm 6ft 7s 20 25 mph 1010.6mb 61f 57f
2:00pm 6ft 7s 20 25 mph 1010.5mb 61f 57f
1:00pm 6.5ft 7s 22 27 mph 1010.4mb 61f 57f
12:00pm 7ft 7s 25 29 mph 1010.3mb 61f 57f
11:00am 6.5ft 7s 25 31 mph 1010.4mb 61f 57f
9:00am 7ft 8s 27 31 mph 1010.4mb 61f 56f
8:00am 7ft 7s 27 31 mph 1010.5mb 61f 56f
7:00am 7.5ft 7s 25 29 mph 1010.3mb 61f 56f
6:00am  -   -  22
mph
1010.3mb - 58f
5:00am 9ft 7s 25 31 mph 1010.1mb 61f 58f
4:00am 8ft 8s 25 31 mph 1009.9mb 59f 58f
3:00am 9.5ft 8s 27 34 mph 1009.5mb 58f 58f
2:00am 9ft 8s 27 31 mph 1009.5mb 59f 59f
1:00am 9ft 7s 25 31 mph 1009.6mb 59f 59f
12:00am 9ft 7s 27 34 mph 1009.2mb 59f 58f
Sun 08/28 11:00pm 8.5ft 8s 27 34 mph 1009.1mb 60f 59f
10:00pm 8ft 8s 25 31 mph 1008.9mb 61f 59f
9:00pm 8ft 8s 25 29 mph 1008.8mb 61f 59f
8:00pm 8.5ft 8s 22 27 mph 1008.7mb 61f 57f
7:00pm 9ft 9s 25 29 mph 1009mb 60f 56f
6:00pm 9ft 8s 25 29 mph 1008.9mb 58f 56f
5:00pm 9.5ft 8s 25 31 mph 1009.1mb 58f 56f
4:00pm 9.5ft 8s 25 31 mph 1009mb 58f 56f
3:00pm 9ft 8s 27 34 mph 1009mb 58f 56f
2:00pm 9ft 8s 29 36 mph 1008.9mb 58f 56f
1:00pm 10ft 8s 29 38 mph 1008.6mb 58f 56f
12:00pm 10ft 7s 29 36 mph 1008.6mb 58f 56f
10:00am 6.5ft 5s 29 36 mph 1008.4mb 58f 55f
9:00am 5ft 14s 27 34 mph 1008.9mb 58f 55f
8:00am 4.5ft 4s 22 25 mph 1009.8mb 58f 55f
7:00am 3.5ft 16s 22 27 mph 1009.7mb 58f 55f
6:00am 3ft 14s 22 27 mph 1009.7mb 59f 58f
5:00am 2.5ft 14s 20 25 mph 1010.1mb 60f 58f
4:00am 2.5ft 15s 18 20 mph 1010.5mb 61f 58f
3:00am 2ft 14s 16 18 mph 1011mb 61f 58f
2:00am 2ft 15s 13 16 mph 1011.4mb 61f 59f
1:00am 2.5ft 16s 13 16 mph 1011.4mb 61f 60f
12:00am 2.5ft 15s 13 16 mph 1011.5mb 60f 59f
Sat 08/27 11:00pm 2ft 16s 13
mph
1011.4mb 59f 58f
10:00pm 2ft 15s 13 16 mph 1011.6mb 59f 59f
9:00pm 2ft 15s 13 16 mph 1011.5mb 59f 58f
8:00pm 2ft 15s 13 16 mph 1011.6mb 59f 57f
7:00pm 2ft 15s 13 16 mph 1011.8mb 60f 58f
6:00pm 2.5ft 15s 11 13 mph 1012mb 60f 58f
5:00pm 2ft 16s 9 11 mph 1012mb 61f 57f
4:00pm 2ft 14s 7
mph
1012.3mb 61f 58f
3:00pm 2ft 16s 4
mph
1012.3mb 61f 58f
2:00pm 2.5ft 16s 4 7 mph 1012.2mb 61f 58f
1:00pm 2.5ft 16s 4 7 mph 1012.1mb 60f 59f
12:00pm 2.5ft 16s 7 9 mph 1011.9mb 60f 58f
11:00am 2.5ft 15s 4 7 mph 1011.5mb 59f 57f
10:00am 2.5ft 16s  -  2 mph 1011.5mb 58f 57f
9:00am 3ft 6s 2 4 mph 1011.6mb 58f 56f
8:00am 3ft 6s 2 4 mph 1011.6mb 58f 57f
7:00am 3ft 7s 4
mph
1012mb 58f 56f
6:00am 2.5ft 16s 2
mph
1012.2mb 58f 58f
5:00am 2.5ft 6s 2 4 mph 1012.5mb 58f 59f
4:00am 2.5ft 5s 4 7 mph 1012.8mb 58f 59f
3:00am 2.5ft 6s 4
mph
1013mb 58f 59f
2:00am 2.5ft 17s 4
mph
1013.1mb 58f 59f
1:00am 2.5ft 5s 11
mph
1012.9mb 58f 60f
12:00am 2.5ft 4s 13 18 mph 1013mb 58f 60f
Fri 08/26 11:00pm 2ft 5s 13 16 mph 1013.3mb 58f 60f
10:00pm 2ft 17s 11 13 mph 1013.7mb 58f 60f
9:00pm 2ft 16s 13 16 mph 1014mb 58f 59f
8:00pm 2ft 5s 9 13 mph 1013.8mb 58f 58f
7:00pm 2.5ft 17s 4 7 mph 1013.9mb 58f 58f
6:00pm 2ft 5s 7 9 mph 1014.6mb 56f 57f
5:00pm 2.5ft 5s 9
mph
1015mb 55f 57f
4:00pm 2.5ft 6s 7 9 mph 1015.3mb 55f 56f
3:00pm 3.5ft 5s 11 13 mph 1015.6mb 55f 59f
2:00pm 3.5ft 5s 13
mph
1016.1mb 55f 56f
1:00pm 5ft 5s 13 18 mph 1016.6mb 55f 55f
12:00pm 5ft 5s 20 25 mph 1016.5mb 55f 54f
11:00am 6ft 6s 22 27 mph 1016.4mb 55f 55f
10:00am 7.5ft 6s 27 34 mph 1016.2mb 55f 55f
9:00am 7ft 6s 27 31 mph 1016.7mb 55f 56f
8:00am 7.5ft 6s 27 31 mph 1016.9mb 55f 55f
6:00am 6ft 6s 25 31 mph 1017.5mb 55f 55f
5:00am 7ft 6s 29 36 mph 1017.4mb 56f 57f
4:00am 7ft 7s 29 36 mph 1017.3mb 56f 57f